createdAt,value
2017-03-13T00:00:31.599Z,0
2017-03-13T00:01:45.376Z,0
2017-03-13T00:02:59.088Z,0
2017-03-13T00:04:13.088Z,0
2017-03-13T00:05:26.885Z,0
2017-03-13T00:06:40.219Z,0
2017-03-13T00:07:53.972Z,0
2017-03-13T00:09:07.722Z,0
2017-03-13T00:10:20.732Z,0
2017-03-13T00:11:34.530Z,0
2017-03-13T00:12:47.712Z,0
2017-03-13T00:14:01.432Z,0
2017-03-13T00:15:15.246Z,0
2017-03-13T00:16:29.538Z,0
2017-03-13T00:17:43.302Z,0
2017-03-13T00:18:57.016Z,0
2017-03-13T00:20:11.096Z,0
2017-03-13T00:21:24.966Z,0
2017-03-13T00:22:39.006Z,0
2017-03-13T00:23:53.233Z,0
2017-03-13T00:25:06.354Z,0
2017-03-13T00:26:20.161Z,0
2017-03-13T00:27:33.363Z,0
2017-03-13T00:28:47.774Z,0
2017-03-13T00:30:02.123Z,0
2017-03-13T00:31:16.567Z,0
2017-03-13T00:32:30.928Z,0
2017-03-13T00:33:45.293Z,0
2017-03-13T00:34:59.695Z,0
2017-03-13T00:36:14.088Z,0
2017-03-13T00:37:27.809Z,0
2017-03-13T00:38:42.132Z,0
2017-03-13T00:39:56.489Z,0
2017-03-13T00:41:10.251Z,0
2017-03-13T00:42:24.023Z,0
2017-03-13T00:43:37.807Z,0
2017-03-13T00:44:52.197Z,0
2017-03-13T00:46:06.595Z,0
2017-03-13T00:47:20.984Z,0
2017-03-13T00:48:35.384Z,0
2017-03-13T00:49:49.775Z,0
2017-03-13T00:51:04.135Z,0
2017-03-13T00:52:17.897Z,0
2017-03-13T00:53:32.313Z,0
2017-03-13T00:54:46.688Z,0
2017-03-13T00:56:00.517Z,0
2017-03-13T00:57:14.245Z,0
2017-03-13T00:58:27.966Z,0
2017-03-13T00:59:42.386Z,0
2017-03-13T01:00:56.853Z,0
2017-03-13T01:02:10.670Z,0
2017-03-13T01:03:25.275Z,0
2017-03-13T01:04:39.634Z,0
2017-03-13T01:05:54.080Z,0
2017-03-13T01:07:08.429Z,0
2017-03-13T01:08:22.823Z,0
2017-03-13T01:09:37.207Z,0
2017-03-13T01:10:51.621Z,0
2017-03-13T01:12:06.008Z,0
2017-03-13T01:13:20.382Z,0
2017-03-13T01:14:34.781Z,0
2017-03-13T01:15:49.154Z,0
2017-03-13T01:17:03.509Z,0
2017-03-13T01:18:17.901Z,0
2017-03-13T01:19:32.376Z,0
2017-03-13T01:20:46.301Z,0
2017-03-13T01:22:00.697Z,0
2017-03-13T01:23:15.070Z,0
2017-03-13T01:24:29.470Z,0
2017-03-13T01:25:43.822Z,0
2017-03-13T01:26:58.211Z,0
2017-03-13T01:28:12.014Z,0
2017-03-13T01:29:25.786Z,0
2017-03-13T01:30:40.129Z,0
2017-03-13T01:31:54.482Z,0
2017-03-13T01:33:08.898Z,0
2017-03-13T01:34:22.645Z,0
2017-03-13T01:35:37.039Z,0
2017-03-13T01:36:51.420Z,0
2017-03-13T01:38:05.798Z,0
2017-03-13T01:39:20.350Z,0
2017-03-13T01:40:34.774Z,0
2017-03-13T01:41:49.153Z,0
2017-03-13T01:43:02.875Z,0
2017-03-13T01:44:17.419Z,0
2017-03-13T01:45:30.483Z,0
2017-03-13T01:46:44.897Z,0
2017-03-13T01:47:58.012Z,0
2017-03-13T01:49:12.440Z,0
2017-03-13T01:50:26.844Z,0
2017-03-13T01:51:40.552Z,0
2017-03-13T01:52:54.922Z,0
2017-03-13T01:54:09.338Z,0
2017-03-13T01:55:23.734Z,0
2017-03-13T01:56:38.148Z,0
2017-03-13T01:57:52.616Z,0
2017-03-13T01:59:07.002Z,0
2017-03-13T02:00:21.407Z,0
2017-03-13T02:01:35.785Z,0
2017-03-13T02:02:49.511Z,0
2017-03-13T02:04:03.943Z,0
2017-03-13T02:05:17.701Z,0
2017-03-13T02:06:32.148Z,0
2017-03-13T02:07:46.320Z,0
2017-03-13T02:09:00.763Z,0
2017-03-13T02:10:14.528Z,0
2017-03-13T02:11:28.939Z,0
2017-03-13T02:12:43.353Z,0
2017-03-13T02:13:57.763Z,0
2017-03-13T02:15:12.180Z,0
2017-03-13T02:16:26.128Z,0
2017-03-13T02:17:40.542Z,0
2017-03-13T02:18:54.320Z,0
2017-03-13T02:20:08.713Z,0
2017-03-13T02:21:22.505Z,0
2017-03-13T02:22:36.265Z,0
2017-03-13T02:23:50.712Z,0
2017-03-13T02:25:05.122Z,0
2017-03-13T02:26:19.529Z,0
2017-03-13T02:27:33.899Z,0
2017-03-13T02:28:48.303Z,0
2017-03-13T02:30:02.679Z,0
2017-03-13T02:31:16.442Z,0
2017-03-13T02:32:30.904Z,0
2017-03-13T02:33:45.541Z,0
2017-03-13T02:34:59.247Z,0
2017-03-13T02:36:13.028Z,0
2017-03-13T02:37:27.418Z,0
2017-03-13T02:38:41.829Z,0
2017-03-13T02:39:56.185Z,0
2017-03-13T02:41:10.552Z,0
2017-03-13T02:42:24.336Z,0
2017-03-13T02:43:38.747Z,0
2017-03-13T02:44:53.109Z,0
2017-03-13T02:46:07.506Z,0
2017-03-13T02:47:21.265Z,0
2017-03-13T02:48:35.675Z,0
2017-03-13T02:49:50.089Z,0
2017-03-13T02:51:04.482Z,0
2017-03-13T02:52:18.939Z,0
2017-03-13T02:53:33.333Z,0
2017-03-13T02:54:47.749Z,0
2017-03-13T02:56:02.112Z,0
2017-03-13T02:57:16.516Z,0
2017-03-13T02:58:30.951Z,0
2017-03-13T02:59:45.339Z,0
2017-03-13T03:00:59.782Z,0
2017-03-13T03:02:14.184Z,0
2017-03-13T03:03:27.953Z,0
2017-03-13T03:04:41.675Z,0
2017-03-13T03:05:56.063Z,0
2017-03-13T03:07:10.513Z,0
2017-03-13T03:08:24.905Z,0
2017-03-13T03:09:39.319Z,0
2017-03-13T03:10:53.088Z,0
2017-03-13T03:12:07.496Z,0
2017-03-13T03:13:21.239Z,0
2017-03-13T03:14:35.053Z,0
2017-03-13T03:15:48.806Z,0
2017-03-13T03:17:03.224Z,0
2017-03-13T03:18:16.991Z,0
2017-03-13T03:19:31.412Z,0
2017-03-13T03:20:46.265Z,0
2017-03-13T03:22:00.643Z,0
2017-03-13T03:23:15.065Z,0
2017-03-13T03:24:29.467Z,0
2017-03-13T03:25:43.886Z,0
2017-03-13T03:26:58.284Z,0
2017-03-13T03:28:12.722Z,0
2017-03-13T03:29:27.186Z,0
2017-03-13T03:30:41.599Z,0
2017-03-13T03:31:56.032Z,0
2017-03-13T03:33:10.440Z,0
2017-03-13T03:34:24.854Z,0
2017-03-13T03:35:39.321Z,0
2017-03-13T03:36:53.752Z,0
2017-03-13T03:38:08.168Z,0
2017-03-13T03:39:22.554Z,0
2017-03-13T03:40:36.274Z,0
2017-03-13T03:41:50.060Z,0
2017-03-13T03:43:04.462Z,0
2017-03-13T03:44:18.900Z,0
2017-03-13T03:45:33.357Z,0
2017-03-13T03:46:47.180Z,0
2017-03-13T03:48:01.752Z,0
2017-03-13T03:49:15.515Z,0
2017-03-13T03:50:29.935Z,0
2017-03-13T03:51:43.673Z,0
2017-03-13T03:52:58.101Z,0
2017-03-13T03:54:12.554Z,0
2017-03-13T03:55:26.953Z,0
2017-03-13T03:56:40.736Z,0
2017-03-13T03:57:55.144Z,0
2017-03-13T03:59:09.558Z,0
2017-03-13T04:00:24.009Z,0
2017-03-13T04:01:37.757Z,0
2017-03-13T04:02:52.149Z,0
2017-03-13T04:04:05.898Z,0
2017-03-13T04:05:20.310Z,0
2017-03-13T04:06:34.738Z,0
2017-03-13T04:07:49.137Z,0
2017-03-13T04:09:03.512Z,0
2017-03-13T04:10:17.924Z,0
2017-03-13T04:11:31.055Z,0
2017-03-13T04:12:45.442Z,0
2017-03-13T04:13:59.849Z,0
2017-03-13T04:15:14.299Z,0
2017-03-13T04:16:28.754Z,0
2017-03-13T04:17:43.150Z,0
2017-03-13T04:18:57.534Z,0
2017-03-13T04:20:11.284Z,0
2017-03-13T04:21:25.763Z,0
2017-03-13T04:22:40.120Z,0
2017-03-13T04:23:54.499Z,0
2017-03-13T04:25:08.886Z,0
2017-03-13T04:26:23.283Z,0
2017-03-13T04:27:37.722Z,0
2017-03-13T04:28:52.114Z,0
2017-03-13T04:30:05.190Z,0
2017-03-13T04:31:19.589Z,0
2017-03-13T04:32:34.002Z,0
2017-03-13T04:33:48.408Z,0
2017-03-13T04:35:02.795Z,0
2017-03-13T04:36:17.183Z,0
2017-03-13T04:37:31.558Z,0
2017-03-13T04:38:45.979Z,0
2017-03-13T04:40:00.447Z,0
2017-03-13T04:41:15.346Z,0
2017-03-13T04:42:29.142Z,0
2017-03-13T04:43:42.892Z,0
2017-03-13T04:44:57.271Z,0
2017-03-13T04:46:11.671Z,0
2017-03-13T04:47:25.432Z,0
2017-03-13T04:48:39.944Z,0
2017-03-13T04:49:54.355Z,0
2017-03-13T04:51:08.154Z,0
2017-03-13T04:52:21.901Z,0
2017-03-13T04:53:35.682Z,0
2017-03-13T04:54:50.109Z,0
2017-03-13T04:56:04.471Z,0
2017-03-13T04:57:18.239Z,0
2017-03-13T04:58:32.641Z,0
2017-03-13T04:59:47.008Z,0
2017-03-13T05:01:01.364Z,0
2017-03-13T05:02:15.714Z,0
2017-03-13T05:03:29.452Z,0
2017-03-13T05:04:43.815Z,0
2017-03-13T05:05:58.212Z,0
2017-03-13T05:07:12.654Z,0
2017-03-13T05:08:27.071Z,0
2017-03-13T05:09:40.811Z,0
2017-03-13T05:10:54.617Z,0
2017-03-13T05:12:09.058Z,0
2017-03-13T05:13:23.479Z,0
2017-03-13T05:14:37.798Z,0
2017-03-13T05:15:51.515Z,0
2017-03-13T05:17:05.923Z,0
2017-03-13T05:18:20.325Z,0
2017-03-13T05:19:34.694Z,0
2017-03-13T05:20:49.119Z,0
2017-03-13T05:22:03.518Z,0
2017-03-13T05:23:17.898Z,0
2017-03-13T05:24:32.292Z,0
2017-03-13T05:25:46.680Z,0
2017-03-13T05:27:01.194Z,0
2017-03-13T05:28:14.860Z,0
2017-03-13T05:29:29.200Z,0
2017-03-13T05:30:43.451Z,0
2017-03-13T05:31:57.808Z,0
2017-03-13T05:33:12.173Z,0
2017-03-13T05:34:26.581Z,0
2017-03-13T05:35:39.074Z,0
2017-03-13T05:36:52.501Z,0
2017-03-13T05:38:05.870Z,0
2017-03-13T05:39:20.019Z,0
2017-03-13T05:40:33.687Z,0
2017-03-13T05:41:47.418Z,0
2017-03-13T05:43:01.125Z,0
2017-03-13T05:44:15.327Z,0
2017-03-13T05:45:29.126Z,0
2017-03-13T05:46:42.977Z,0
2017-03-13T05:47:56.653Z,0
2017-03-13T05:49:10.348Z,0
2017-03-13T05:50:23.903Z,0
2017-03-13T05:51:37.640Z,0
2017-03-13T05:52:51.319Z,0
2017-03-13T05:54:05.042Z,0
2017-03-13T05:55:18.792Z,0
2017-03-13T05:56:32.647Z,0
2017-03-13T05:57:46.344Z,0
2017-03-13T05:59:00.046Z,0
2017-03-13T06:00:13.792Z,0
2017-03-13T06:01:26.926Z,0
2017-03-13T06:02:40.647Z,0
2017-03-13T06:03:54.367Z,0
2017-03-13T06:05:08.048Z,0
2017-03-13T06:06:20.705Z,0
2017-03-13T06:07:33.851Z,0
2017-03-13T06:08:47.540Z,0
2017-03-13T06:10:01.295Z,0
2017-03-13T06:11:14.414Z,0
2017-03-13T06:12:28.101Z,0
2017-03-13T06:13:41.204Z,0
2017-03-13T06:14:54.910Z,0
2017-03-13T06:16:08.592Z,0
2017-03-13T06:17:22.290Z,0
2017-03-13T06:18:35.447Z,0
2017-03-13T06:19:49.160Z,0
2017-03-13T06:21:02.857Z,0
2017-03-13T06:22:16.532Z,0
2017-03-13T06:23:30.236Z,0
2017-03-13T06:24:43.971Z,0
2017-03-13T06:25:57.671Z,0
2017-03-13T06:27:10.761Z,0
2017-03-13T06:28:24.547Z,0
2017-03-13T06:29:38.247Z,0
2017-03-13T06:30:51.365Z,0
2017-03-13T06:32:04.477Z,0
2017-03-13T06:33:18.263Z,0
2017-03-13T06:34:31.990Z,0
2017-03-13T06:35:45.675Z,0
2017-03-13T06:36:59.372Z,0
2017-03-13T06:38:13.089Z,0
2017-03-13T06:39:26.217Z,0
2017-03-13T06:40:39.922Z,0
2017-03-13T06:41:53.660Z,0
2017-03-13T06:43:07.345Z,0
2017-03-13T06:44:21.031Z,0
2017-03-13T06:45:34.755Z,0
2017-03-13T06:46:48.467Z,0
2017-03-13T06:48:01.571Z,0
2017-03-13T06:49:15.277Z,0
2017-03-13T06:50:29.048Z,0
2017-03-13T06:51:42.764Z,0
2017-03-13T06:52:56.470Z,0
2017-03-13T06:54:10.158Z,0
2017-03-13T06:55:23.833Z,0
2017-03-13T06:56:36.914Z,0
2017-03-13T06:57:50.011Z,0
2017-03-13T06:59:03.778Z,0
2017-03-13T07:00:16.915Z,0
2017-03-13T07:01:30.058Z,0
2017-03-13T07:02:43.758Z,0
2017-03-13T07:03:57.474Z,0
2017-03-13T07:05:11.157Z,0
2017-03-13T07:06:24.262Z,0
2017-03-13T07:07:37.941Z,0
2017-03-13T07:08:51.640Z,0
2017-03-13T07:10:05.348Z,0
2017-03-13T07:11:19.032Z,0
2017-03-13T07:12:32.148Z,0
2017-03-13T07:13:45.822Z,0
2017-03-13T07:14:59.534Z,0
2017-03-13T07:16:13.250Z,0
2017-03-13T07:17:26.956Z,0
2017-03-13T07:18:40.674Z,0
2017-03-13T07:19:54.399Z,0
2017-03-13T07:21:08.104Z,0
2017-03-13T07:22:21.811Z,0
2017-03-13T07:23:35.495Z,0
2017-03-13T07:24:48.632Z,0
2017-03-13T07:26:02.333Z,0
2017-03-13T07:27:15.403Z,0
2017-03-13T07:28:27.916Z,0
2017-03-13T07:29:41.030Z,0
2017-03-13T07:30:54.160Z,0
2017-03-13T07:32:07.879Z,0
2017-03-13T07:33:21.572Z,0
2017-03-13T07:34:35.264Z,0
2017-03-13T07:35:48.961Z,0
2017-03-13T07:37:02.688Z,0
2017-03-13T07:38:16.416Z,0
2017-03-13T07:39:30.152Z,0
2017-03-13T07:40:43.831Z,0
2017-03-13T07:41:57.528Z,0
2017-03-13T07:43:11.232Z,0
2017-03-13T07:44:24.380Z,0
2017-03-13T07:45:38.093Z,0
2017-03-13T07:46:51.167Z,0
2017-03-13T07:48:04.864Z,0
2017-03-13T07:49:18.587Z,0
2017-03-13T07:50:32.277Z,0
2017-03-13T07:51:45.385Z,0
2017-03-13T07:52:59.082Z,0
2017-03-13T07:54:12.813Z,0
2017-03-13T07:55:25.906Z,0
2017-03-13T07:56:39.629Z,0
2017-03-13T07:57:52.734Z,0
2017-03-13T07:59:06.461Z,0
2017-03-13T08:00:19.577Z,0
2017-03-13T08:01:33.292Z,0
2017-03-13T08:02:47.007Z,0
2017-03-13T08:04:00.677Z,0
2017-03-13T08:05:14.353Z,0
2017-03-13T08:06:27.469Z,0
2017-03-13T08:07:40.577Z,0
2017-03-13T08:08:54.277Z,0
2017-03-13T08:10:07.988Z,0
2017-03-13T08:11:21.729Z,0
2017-03-13T08:12:34.218Z,0
2017-03-13T08:13:47.944Z,0
2017-03-13T08:15:01.638Z,0
2017-03-13T08:16:15.330Z,0
2017-03-13T08:17:28.432Z,0
2017-03-13T08:18:42.127Z,0
2017-03-13T08:19:55.828Z,0
2017-03-13T08:21:09.539Z,0
2017-03-13T08:22:23.270Z,0
2017-03-13T08:23:36.998Z,0
2017-03-13T08:24:50.126Z,0
2017-03-13T08:26:03.258Z,0
2017-03-13T08:27:16.971Z,0
2017-03-13T08:28:30.697Z,0
2017-03-13T08:29:44.412Z,0
2017-03-13T08:30:58.084Z,0
2017-03-13T08:32:11.786Z,0
2017-03-13T08:33:24.919Z,0
2017-03-13T08:34:37.444Z,0
2017-03-13T08:35:51.200Z,0
2017-03-13T08:37:04.902Z,0
2017-03-13T08:38:18.008Z,0
2017-03-13T08:39:31.116Z,0
2017-03-13T08:40:44.836Z,0
2017-03-13T08:41:57.972Z,0
2017-03-13T08:43:11.087Z,0
2017-03-13T08:44:24.795Z,0
2017-03-13T08:45:37.973Z,0
2017-03-13T08:46:50.499Z,0
2017-03-13T08:48:04.214Z,0
2017-03-13T08:49:17.925Z,0
2017-03-13T08:50:31.613Z,0
2017-03-13T08:51:45.305Z,0
2017-03-13T08:52:59.069Z,0
2017-03-13T08:54:12.756Z,0
2017-03-13T08:55:26.440Z,0
2017-03-13T08:56:40.152Z,0
2017-03-13T08:57:53.842Z,0
2017-03-13T08:59:07.583Z,0
2017-03-13T09:00:21.325Z,0
2017-03-13T09:01:34.473Z,0
2017-03-13T09:02:48.182Z,0
2017-03-13T09:04:01.313Z,5
2017-03-13T09:05:15.016Z,5
2017-03-13T09:06:28.102Z,5
2017-03-13T09:07:41.799Z,10
2017-03-13T09:08:54.905Z,10
2017-03-13T09:10:08.568Z,15
2017-03-13T09:11:22.281Z,15
2017-03-13T09:12:35.995Z,20
2017-03-13T09:13:49.706Z,20
2017-03-13T09:15:03.377Z,20
2017-03-13T09:16:17.099Z,20
2017-03-13T09:17:30.806Z,25
2017-03-13T09:18:44.518Z,25
2017-03-13T09:19:57.640Z,30
2017-03-13T09:21:11.343Z,30
2017-03-13T09:22:24.446Z,30
2017-03-13T09:23:38.181Z,30
2017-03-13T09:24:51.869Z,30
2017-03-13T09:26:05.024Z,35
2017-03-13T09:27:18.736Z,30
2017-03-13T09:28:32.459Z,25
2017-03-13T09:29:44.983Z,20
2017-03-13T09:30:57.481Z,20
2017-03-13T09:32:10.588Z,25
2017-03-13T09:33:23.721Z,30
2017-03-13T09:34:37.472Z,35
2017-03-13T09:35:51.158Z,45
2017-03-13T09:37:04.860Z,55
2017-03-13T09:38:18.575Z,70
2017-03-13T09:39:31.696Z,75
2017-03-13T09:40:45.394Z,85
2017-03-13T09:41:59.082Z,90
2017-03-13T09:43:12.827Z,90
2017-03-13T09:44:26.512Z,95
2017-03-13T09:45:40.202Z,95
2017-03-13T09:46:53.897Z,85
2017-03-13T09:48:07.017Z,65
2017-03-13T09:49:20.740Z,45
2017-03-13T09:50:33.835Z,40
2017-03-13T09:51:47.574Z,30
2017-03-13T09:53:00.694Z,30
2017-03-13T09:54:14.379Z,25
2017-03-13T09:55:28.099Z,25
2017-03-13T09:56:40.631Z,25
2017-03-13T09:57:54.331Z,25
2017-03-13T09:59:06.824Z,30
2017-03-13T10:00:19.957Z,25
2017-03-13T10:01:33.669Z,25
2017-03-13T10:02:47.390Z,25
2017-03-13T10:04:01.056Z,25
2017-03-13T10:05:14.777Z,25
2017-03-13T10:06:28.504Z,25
2017-03-13T10:07:42.234Z,25
2017-03-13T10:08:55.321Z,25
2017-03-13T10:10:09.050Z,30
2017-03-13T10:11:22.762Z,35
2017-03-13T10:12:35.280Z,40
2017-03-13T10:13:49.032Z,45
2017-03-13T10:15:02.719Z,50
2017-03-13T10:16:15.814Z,55
2017-03-13T10:17:28.935Z,60
2017-03-13T10:18:42.674Z,60
2017-03-13T10:19:56.360Z,60
2017-03-13T10:21:10.088Z,65
2017-03-13T10:22:23.202Z,70
2017-03-13T10:23:36.891Z,70
2017-03-13T10:24:49.397Z,75
2017-03-13T10:26:03.100Z,70
2017-03-13T10:27:16.238Z,65
2017-03-13T10:28:29.948Z,60
2017-03-13T10:29:43.059Z,55
2017-03-13T10:30:56.761Z,55
2017-03-13T10:32:09.883Z,55
2017-03-13T10:33:23.581Z,55
2017-03-13T10:34:36.692Z,55
2017-03-13T10:35:50.386Z,55
2017-03-13T10:37:03.518Z,60
2017-03-13T10:38:17.199Z,65
2017-03-13T10:39:30.882Z,70
2017-03-13T10:40:44.017Z,80
2017-03-13T10:41:57.716Z,85
2017-03-13T10:43:10.880Z,85
2017-03-13T10:44:24.580Z,90
2017-03-13T10:45:37.716Z,100
2017-03-13T10:46:51.458Z,115
2017-03-13T10:48:05.182Z,130
2017-03-13T10:49:18.911Z,145
2017-03-13T10:50:32.019Z,150
2017-03-13T10:51:44.739Z,155
2017-03-13T10:52:58.437Z,155
2017-03-13T10:54:12.161Z,165
2017-03-13T10:55:25.897Z,175
2017-03-13T10:56:39.026Z,190
2017-03-13T10:57:52.153Z,220
2017-03-13T10:59:05.863Z,245
2017-03-13T11:00:18.964Z,275
2017-03-13T11:01:32.828Z,295
2017-03-13T11:02:46.533Z,300
2017-03-13T11:04:00.258Z,295
2017-03-13T11:05:13.965Z,285
2017-03-13T11:06:27.660Z,280
2017-03-13T11:07:41.443Z,280
2017-03-13T11:08:55.188Z,280
2017-03-13T11:10:08.997Z,290
2017-03-13T11:11:22.789Z,310
2017-03-13T11:12:35.907Z,335
2017-03-13T11:13:48.992Z,355
2017-03-13T11:15:02.689Z,385
2017-03-13T11:16:15.811Z,405
2017-03-13T11:17:29.534Z,430
2017-03-13T11:18:43.237Z,465
2017-03-13T11:19:56.941Z,520
2017-03-13T11:21:10.458Z,580
2017-03-13T11:22:24.160Z,630
2017-03-13T11:23:37.292Z,670
2017-03-13T11:24:51.001Z,700
2017-03-13T11:26:04.713Z,745
2017-03-13T11:27:17.868Z,780
2017-03-13T11:28:31.552Z,790
2017-03-13T11:29:45.265Z,825
2017-03-13T11:30:58.430Z,875
2017-03-13T11:32:12.137Z,920
2017-03-13T11:33:25.267Z,955
2017-03-13T11:34:38.975Z,985
2017-03-13T11:35:52.070Z,1025
2017-03-13T11:37:05.770Z,1005
2017-03-13T11:38:18.889Z,990
2017-03-13T11:39:32.615Z,1015
2017-03-13T11:40:46.344Z,1065
2017-03-13T11:42:00.042Z,1135
2017-03-13T11:43:13.745Z,1210
2017-03-13T11:44:27.459Z,1265
2017-03-13T11:45:40.637Z,1285
2017-03-13T11:46:53.741Z,1290
2017-03-13T11:48:07.476Z,1295
2017-03-13T11:49:20.651Z,1295
2017-03-13T11:50:34.339Z,1305
2017-03-13T11:51:48.107Z,1340
2017-03-13T11:53:01.863Z,1425
2017-03-13T11:54:15.594Z,1515
2017-03-13T11:55:29.311Z,1640
2017-03-13T11:56:43.004Z,2090
2017-03-13T11:57:56.681Z,2240
2017-03-13T11:59:10.368Z,1585
2017-03-13T12:00:23.480Z,1500
2017-03-13T12:01:37.233Z,1960
2017-03-13T12:02:50.975Z,1645
2017-03-13T12:04:04.656Z,1680
2017-03-13T12:05:18.377Z,1655
2017-03-13T12:06:32.128Z,1725
2017-03-13T12:07:45.254Z,1930
2017-03-13T12:08:58.978Z,2350
2017-03-13T12:10:12.084Z,2305
2017-03-13T12:11:25.229Z,2275
2017-03-13T12:12:38.361Z,2310
2017-03-13T12:13:52.092Z,2340
2017-03-13T12:15:05.234Z,2405
2017-03-13T12:16:18.347Z,2040
2017-03-13T12:17:31.479Z,2175
2017-03-13T12:18:45.216Z,2475
2017-03-13T12:19:58.326Z,2590
2017-03-13T12:21:12.165Z,2755
2017-03-13T12:22:25.285Z,2720
2017-03-13T12:23:38.426Z,2740
2017-03-13T12:24:51.555Z,2610
2017-03-13T12:26:04.688Z,2270
2017-03-13T12:27:18.464Z,2365
2017-03-13T12:28:32.162Z,2490
2017-03-13T12:29:45.890Z,2750
2017-03-13T12:30:59.589Z,2960
2017-03-13T12:32:12.707Z,3145
2017-03-13T12:33:26.402Z,3355
2017-03-13T12:34:38.921Z,3115
2017-03-13T12:35:52.686Z,2715
2017-03-13T12:37:06.436Z,2895
2017-03-13T12:38:18.971Z,2845
2017-03-13T12:39:32.682Z,2600
2017-03-13T12:40:44.595Z,2405
2017-03-13T12:41:57.694Z,2810
2017-03-13T12:43:09.634Z,2925
2017-03-13T12:44:23.342Z,2730
2017-03-13T12:45:36.457Z,2575
2017-03-13T12:46:49.594Z,2480
2017-03-13T12:48:03.310Z,2800
2017-03-13T12:49:17.034Z,2835
2017-03-13T12:50:30.769Z,2685
2017-03-13T12:54:10.570Z,2680
2017-03-13T12:55:23.738Z,2205
2017-03-13T12:56:37.473Z,2000
2017-03-13T12:57:51.189Z,1960
2017-03-13T12:59:04.910Z,1810
2017-03-13T13:00:18.630Z,1770
2017-03-13T13:01:32.290Z,1825
2017-03-13T13:02:45.382Z,1960
2017-03-13T13:03:59.036Z,2185
2017-03-13T13:05:12.110Z,2255
2017-03-13T13:06:24.608Z,2245
2017-03-13T13:07:38.948Z,2195
2017-03-13T13:08:52.029Z,2170
2017-03-13T13:10:05.146Z,2275
2017-03-13T13:11:18.799Z,2475
2017-03-13T13:12:32.475Z,3035
2017-03-13T13:13:46.141Z,2915
2017-03-13T13:14:59.850Z,2250
2017-03-13T13:16:13.614Z,1915
2017-03-13T13:17:27.285Z,1905
2017-03-13T13:18:40.393Z,2135
2017-03-13T13:19:54.065Z,3245
2017-03-13T13:21:07.731Z,3260
2017-03-13T13:22:21.402Z,3095
2017-03-13T13:23:34.481Z,2195
2017-03-13T13:24:48.159Z,2085
2017-03-13T13:26:01.230Z,2130
2017-03-13T13:27:14.939Z,2990
2017-03-13T13:28:28.634Z,2585
2017-03-13T13:29:41.712Z,2315
2017-03-13T13:30:55.403Z,2265
2017-03-13T13:32:08.527Z,2370
2017-03-13T13:33:22.226Z,2055
2017-03-13T13:34:35.354Z,1955
2017-03-13T13:35:49.065Z,1965
2017-03-13T13:37:02.178Z,2045
2017-03-13T13:38:15.858Z,2100
2017-03-13T13:39:29.539Z,2310
2017-03-13T13:40:43.326Z,2385
2017-03-13T13:41:57.023Z,3685
2017-03-13T13:43:10.745Z,3415
2017-03-13T13:44:23.827Z,2450
2017-03-13T13:45:37.530Z,2215
2017-03-13T13:46:51.229Z,2095
2017-03-13T13:48:04.887Z,1775
2017-03-13T13:49:17.391Z,1520
2017-03-13T13:50:31.090Z,1455
2017-03-13T13:51:45.012Z,1450
2017-03-13T13:52:58.758Z,1465
2017-03-13T13:54:11.854Z,1500
2017-03-13T13:55:25.540Z,1600
2017-03-13T13:56:38.645Z,1630
2017-03-13T13:57:52.341Z,1555
2017-03-13T13:59:06.042Z,1455
2017-03-13T14:00:19.110Z,1415
2017-03-13T14:01:32.803Z,1395
2017-03-13T14:02:46.474Z,1410
2017-03-13T14:03:59.552Z,1480
2017-03-13T14:05:12.080Z,1885
2017-03-13T14:06:25.173Z,1560
2017-03-13T14:07:37.046Z,1530
2017-03-13T14:08:50.108Z,1490
2017-03-13T14:10:03.766Z,1485
2017-03-13T14:11:17.451Z,1520
2017-03-13T14:12:30.561Z,1620
2017-03-13T14:13:44.323Z,1775
2017-03-13T14:14:57.998Z,2050
2017-03-13T14:16:11.090Z,2360
2017-03-13T14:17:24.756Z,2520
2017-03-13T14:18:38.455Z,2735
2017-03-13T14:19:52.151Z,2945
2017-03-13T14:21:05.838Z,2715
2017-03-13T14:22:18.333Z,2465
2017-03-13T14:23:32.055Z,2095
2017-03-13T14:24:45.740Z,1860
2017-03-13T14:25:59.470Z,1780
2017-03-13T14:27:13.203Z,1785
2017-03-13T14:28:26.296Z,1825
2017-03-13T14:29:39.963Z,1875
2017-03-13T14:30:53.030Z,1940
2017-03-13T14:32:06.116Z,1860
2017-03-13T14:33:19.233Z,1705
2017-03-13T14:34:32.907Z,1520
2017-03-13T14:35:46.000Z,1370
2017-03-13T14:36:59.678Z,1245
2017-03-13T14:38:12.759Z,1150
2017-03-13T14:39:25.818Z,1070
2017-03-13T14:40:38.885Z,980
2017-03-13T14:41:51.957Z,900
2017-03-13T14:43:05.005Z,840
2017-03-13T14:44:18.686Z,795
2017-03-13T14:45:32.369Z,775
2017-03-13T14:46:45.441Z,745
2017-03-13T14:47:58.520Z,725
2017-03-13T14:49:12.234Z,705
2017-03-13T14:50:25.309Z,650
2017-03-13T14:51:38.385Z,580
2017-03-13T14:52:52.061Z,520
2017-03-13T14:54:05.133Z,495
2017-03-13T14:55:17.617Z,495
2017-03-13T14:56:31.328Z,495
2017-03-13T14:57:45.008Z,500
2017-03-13T14:58:58.086Z,495
2017-03-13T15:00:11.738Z,485
2017-03-13T15:01:25.398Z,490
2017-03-13T15:02:38.480Z,510
2017-03-13T15:03:51.556Z,530
2017-03-13T15:05:05.230Z,550
2017-03-13T15:06:18.927Z,565
2017-03-13T15:07:32.015Z,580
2017-03-13T15:08:45.676Z,595
2017-03-13T15:09:58.766Z,605
2017-03-13T15:11:12.479Z,585
2017-03-13T15:12:25.568Z,555
2017-03-13T15:13:39.260Z,545
2017-03-13T15:14:52.964Z,540
2017-03-13T15:16:06.637Z,545
2017-03-13T15:17:19.722Z,535
2017-03-13T15:18:33.392Z,520
2017-03-13T15:19:47.062Z,520
2017-03-13T15:21:00.788Z,520
2017-03-13T15:22:14.502Z,525
2017-03-13T15:23:28.189Z,540
2017-03-13T15:24:41.863Z,545
2017-03-13T15:25:55.510Z,545
2017-03-13T15:27:09.197Z,535
2017-03-13T15:28:22.891Z,530
2017-03-13T15:29:36.573Z,545
2017-03-13T15:30:50.226Z,560
2017-03-13T15:32:03.880Z,585
2017-03-13T15:33:17.229Z,625
2017-03-13T15:34:30.988Z,710
2017-03-13T15:35:44.650Z,830
2017-03-13T15:36:58.330Z,940
2017-03-13T15:38:12.021Z,1010
2017-03-13T15:39:25.719Z,1040
2017-03-13T15:40:38.834Z,1045
2017-03-13T15:41:52.490Z,1045
2017-03-13T15:43:05.585Z,985
2017-03-13T15:44:19.284Z,925
2017-03-13T15:45:31.179Z,875
2017-03-13T15:46:44.864Z,835
2017-03-13T15:47:58.553Z,815
2017-03-13T15:49:12.284Z,810
2017-03-13T15:50:25.399Z,820
2017-03-13T15:51:38.467Z,845
2017-03-13T15:52:51.530Z,875
2017-03-13T15:54:05.208Z,890
2017-03-13T15:55:18.896Z,905
2017-03-13T15:56:32.588Z,940
2017-03-13T15:57:46.254Z,985
2017-03-13T15:58:59.325Z,1055
2017-03-13T16:00:13.001Z,1145
2017-03-13T16:01:26.047Z,1225
2017-03-13T16:02:39.139Z,1325
2017-03-13T16:03:52.839Z,1450
2017-03-13T16:05:05.926Z,1570
2017-03-13T16:06:19.999Z,1750
2017-03-13T16:07:33.102Z,2015
2017-03-13T16:08:46.188Z,2230
2017-03-13T16:09:59.879Z,2330
2017-03-13T16:11:13.553Z,2460
2017-03-13T16:12:27.249Z,2570
2017-03-13T16:13:40.317Z,3435
2017-03-13T16:14:53.993Z,2795
2017-03-13T16:16:07.690Z,2700
2017-03-13T16:17:21.408Z,2670
2017-03-13T16:18:34.471Z,3230
2017-03-13T16:19:47.535Z,2930
2017-03-13T16:21:01.199Z,3555
2017-03-13T16:22:14.901Z,3970
2017-03-13T16:23:28.578Z,4305
2017-03-13T16:24:42.242Z,3925
2017-03-13T16:25:55.312Z,4150
2017-03-13T16:27:08.987Z,4290
2017-03-13T16:28:22.642Z,4210
2017-03-13T16:29:36.318Z,3615
2017-03-13T16:30:50.007Z,2905
2017-03-13T16:32:03.673Z,2855
2017-03-13T16:33:16.768Z,2450
2017-03-13T16:34:30.489Z,2270
2017-03-13T16:35:43.585Z,2300
2017-03-13T16:36:56.686Z,3450
2017-03-13T16:38:09.781Z,2715
2017-03-13T16:39:23.461Z,2315
2017-03-13T16:40:37.163Z,1955
2017-03-13T16:41:50.839Z,1875
2017-03-13T16:43:04.521Z,2140
2017-03-13T16:44:18.223Z,2010
2017-03-13T16:45:31.959Z,2100
2017-03-13T16:46:45.638Z,2315
2017-03-13T16:47:58.717Z,2275
2017-03-13T16:49:12.403Z,2015
2017-03-13T16:50:25.507Z,1920
2017-03-13T16:51:39.166Z,2145
2017-03-13T16:52:52.884Z,2600
2017-03-13T16:54:05.975Z,3050
2017-03-13T16:55:19.118Z,2505
2017-03-13T16:56:32.794Z,1970
2017-03-13T16:57:45.864Z,1745
2017-03-13T16:58:58.958Z,1630
2017-03-13T17:00:11.438Z,1565
2017-03-13T17:01:25.135Z,1505
2017-03-13T17:02:37.026Z,1450
2017-03-13T17:03:50.708Z,1420
2017-03-13T17:05:04.402Z,1445
2017-03-13T17:06:17.510Z,1535
2017-03-13T17:07:31.202Z,1660
2017-03-13T17:08:44.898Z,1820
2017-03-13T17:09:57.989Z,1915
2017-03-13T17:11:11.650Z,1420
2017-03-13T17:12:25.986Z,1220
2017-03-13T17:13:39.779Z,1115
2017-03-13T17:14:53.437Z,1065
2017-03-13T17:16:07.149Z,1070
2017-03-13T17:17:19.735Z,1080
2017-03-13T17:18:32.204Z,1070
2017-03-13T17:19:45.871Z,1035
2017-03-13T17:20:59.525Z,965
2017-03-13T17:22:13.186Z,890
2017-03-13T17:23:26.272Z,800
2017-03-13T17:24:38.764Z,740
2017-03-13T17:25:52.432Z,690
2017-03-13T17:27:04.891Z,665
2017-03-13T17:28:18.556Z,665